sensor_id;sensor_type;location;lat;lon;timestamp;temperature;humidity
46508;DHT22;32223;53.654;10.014;2023-05-31T00:01:29;9.60;99.90
46508;DHT22;32223;53.654;10.014;2023-05-31T00:03:54;9.50;99.90
46508;DHT22;32223;53.654;10.014;2023-05-31T00:06:20;9.50;99.90
46508;DHT22;32223;53.654;10.014;2023-05-31T00:08:45;9.50;99.90
46508;DHT22;32223;53.654;10.014;2023-05-31T00:11:11;9.40;99.90
46508;DHT22;32223;53.654;10.014;2023-05-31T00:13:37;9.50;99.90
46508;DHT22;32223;53.654;10.014;2023-05-31T00:16:06;9.40;99.90
46508;DHT22;32223;53.654;10.014;2023-05-31T00:18:32;9.30;99.90
46508;DHT22;32223;53.654;10.014;2023-05-31T00:20:58;9.30;99.90
46508;DHT22;32223;53.654;10.014;2023-05-31T00:23:23;9.30;99.90
46508;DHT22;32223;53.654;10.014;2023-05-31T00:25:49;9.30;99.90
46508;DHT22;32223;53.654;10.014;2023-05-31T00:28:14;9.30;99.90
46508;DHT22;32223;53.654;10.014;2023-05-31T00:30:40;9.20;99.90
46508;DHT22;32223;53.654;10.014;2023-05-31T00:33:06;9.20;99.90
46508;DHT22;32223;53.654;10.014;2023-05-31T00:35:31;9.20;99.90
46508;DHT22;32223;53.654;10.014;2023-05-31T00:37:57;9.20;99.90
46508;DHT22;32223;53.654;10.014;2023-05-31T00:40:23;9.10;99.90
46508;DHT22;32223;53.654;10.014;2023-05-31T00:42:48;9.10;99.90
46508;DHT22;32223;53.654;10.014;2023-05-31T00:45:14;9.10;99.90
46508;DHT22;32223;53.654;10.014;2023-05-31T00:47:40;9.10;99.90
46508;DHT22;32223;53.654;10.014;2023-05-31T00:50:07;9.10;99.90
46508;DHT22;32223;53.654;10.014;2023-05-31T00:52:33;9.00;99.90
46508;DHT22;32223;53.654;10.014;2023-05-31T00:55:00;9.00;99.90
46508;DHT22;32223;53.654;10.014;2023-05-31T00:57:27;9.00;99.90
46508;DHT22;32223;53.654;10.014;2023-05-31T00:59:53;9.00;99.90
46508;DHT22;32223;53.654;10.014;2023-05-31T01:02:18;8.90;99.90
46508;DHT22;32223;53.654;10.014;2023-05-31T01:04:44;8.90;99.90
46508;DHT22;32223;53.654;10.014;2023-05-31T01:07:10;8.90;99.90
46508;DHT22;32223;53.654;10.014;2023-05-31T01:09:36;8.90;99.90
46508;DHT22;32223;53.654;10.014;2023-05-31T01:12:37;8.90;99.90
46508;DHT22;32223;53.654;10.014;2023-05-31T01:15:23;8.80;99.90
46508;DHT22;32223;53.654;10.014;2023-05-31T01:20:32;8.80;99.90
46508;DHT22;32223;53.654;10.014;2023-05-31T01:28:18;8.80;99.90
46508;DHT22;32223;53.654;10.014;2023-05-31T01:30:45;8.80;99.90
46508;DHT22;32223;53.654;10.014;2023-05-31T01:33:12;8.80;99.90
46508;DHT22;32223;53.654;10.014;2023-05-31T01:35:38;8.80;99.90
46508;DHT22;32223;53.654;10.014;2023-05-31T01:38:04;8.90;99.90
46508;DHT22;32223;53.654;10.014;2023-05-31T01:40:30;8.90;99.90
46508;DHT22;32223;53.654;10.014;2023-05-31T01:42:57;8.80;99.90
46508;DHT22;32223;53.654;10.014;2023-05-31T01:45:24;8.80;99.90
46508;DHT22;32223;53.654;10.014;2023-05-31T01:47:55;8.80;99.90
46508;DHT22;32223;53.654;10.014;2023-05-31T01:50:21;8.80;99.90
46508;DHT22;32223;53.654;10.014;2023-05-31T01:52:48;8.80;99.90
46508;DHT22;32223;53.654;10.014;2023-05-31T01:55:13;8.80;99.90
46508;DHT22;32223;53.654;10.014;2023-05-31T01:57:42;8.80;99.90
46508;DHT22;32223;53.654;10.014;2023-05-31T02:00:09;8.80;99.90
46508;DHT22;32223;53.654;10.014;2023-05-31T02:02:44;8.80;99.90
46508;DHT22;32223;53.654;10.014;2023-05-31T02:05:11;8.80;99.90
46508;DHT22;32223;53.654;10.014;2023-05-31T02:07:41;8.70;99.90
46508;DHT22;32223;53.654;10.014;2023-05-31T02:10:08;8.80;99.90
46508;DHT22;32223;53.654;10.014;2023-05-31T02:12:34;8.80;99.90
46508;DHT22;32223;53.654;10.014;2023-05-31T02:15:00;8.70;99.90
46508;DHT22;32223;53.654;10.014;2023-05-31T02:17:26;8.80;99.90
46508;DHT22;32223;53.654;10.014;2023-05-31T02:19:53;8.80;99.90
46508;DHT22;32223;53.654;10.014;2023-05-31T02:22:19;8.70;99.90
46508;DHT22;32223;53.654;10.014;2023-05-31T02:24:45;8.70;99.90
46508;DHT22;32223;53.654;10.014;2023-05-31T02:27:11;8.70;99.90
46508;DHT22;32223;53.654;10.014;2023-05-31T02:29:37;8.60;99.90
46508;DHT22;32223;53.654;10.014;2023-05-31T02:32:03;8.60;99.90
46508;DHT22;32223;53.654;10.014;2023-05-31T02:34:29;8.60;99.90
46508;DHT22;32223;53.654;10.014;2023-05-31T02:36:55;8.60;99.90
46508;DHT22;32223;53.654;10.014;2023-05-31T02:39:21;8.60;99.90
46508;DHT22;32223;53.654;10.014;2023-05-31T02:41:47;8.50;99.90
46508;DHT22;32223;53.654;10.014;2023-05-31T02:44:13;8.50;99.90
46508;DHT22;32223;53.654;10.014;2023-05-31T02:46:39;8.40;99.90
46508;DHT22;32223;53.654;10.014;2023-05-31T02:49:05;8.40;99.90
46508;DHT22;32223;53.654;10.014;2023-05-31T02:51:32;8.30;99.90
46508;DHT22;32223;53.654;10.014;2023-05-31T02:53:57;8.40;99.90
46508;DHT22;32223;53.654;10.014;2023-05-31T02:56:24;8.40;99.90
46508;DHT22;32223;53.654;10.014;2023-05-31T02:58:49;8.40;99.90
46508;DHT22;32223;53.654;10.014;2023-05-31T03:01:15;8.30;99.90
46508;DHT22;32223;53.654;10.014;2023-05-31T03:03:41;8.30;99.90
46508;DHT22;32223;53.654;10.014;2023-05-31T03:06:07;8.30;99.90
46508;DHT22;32223;53.654;10.014;2023-05-31T03:08:32;8.20;99.90
46508;DHT22;32223;53.654;10.014;2023-05-31T03:10:58;8.20;99.90
46508;DHT22;32223;53.654;10.014;2023-05-31T03:13:24;8.20;99.90
46508;DHT22;32223;53.654;10.014;2023-05-31T03:15:49;8.20;99.90
46508;DHT22;32223;53.654;10.014;2023-05-31T03:18:15;8.20;99.90
46508;DHT22;32223;53.654;10.014;2023-05-31T03:20:41;8.20;99.90
46508;DHT22;32223;53.654;10.014;2023-05-31T03:23:07;8.10;99.90
46508;DHT22;32223;53.654;10.014;2023-05-31T03:25:33;8.10;99.90
46508;DHT22;32223;53.654;10.014;2023-05-31T03:27:58;8.00;99.90
46508;DHT22;32223;53.654;10.014;2023-05-31T03:30:24;8.00;99.90
46508;DHT22;32223;53.654;10.014;2023-05-31T03:32:50;8.10;99.90
46508;DHT22;32223;53.654;10.014;2023-05-31T03:35:16;8.00;99.90
46508;DHT22;32223;53.654;10.014;2023-05-31T03:37:43;8.00;99.90
46508;DHT22;32223;53.654;10.014;2023-05-31T03:40:09;8.00;99.90
46508;DHT22;32223;53.654;10.014;2023-05-31T03:42:34;8.00;99.90
46508;DHT22;32223;53.654;10.014;2023-05-31T03:45:01;8.00;99.90
46508;DHT22;32223;53.654;10.014;2023-05-31T03:47:26;8.00;99.90
46508;DHT22;32223;53.654;10.014;2023-05-31T03:49:52;8.00;99.90
46508;DHT22;32223;53.654;10.014;2023-05-31T03:52:18;8.00;99.90
46508;DHT22;32223;53.654;10.014;2023-05-31T03:54:44;8.00;99.90
46508;DHT22;32223;53.654;10.014;2023-05-31T03:57:09;8.00;99.90
46508;DHT22;32223;53.654;10.014;2023-05-31T03:59:35;8.00;99.90
46508;DHT22;32223;53.654;10.014;2023-05-31T04:02:01;8.10;99.90
46508;DHT22;32223;53.654;10.014;2023-05-31T04:04:27;8.10;99.90
46508;DHT22;32223;53.654;10.014;2023-05-31T04:06:53;8.10;99.90
46508;DHT22;32223;53.654;10.014;2023-05-31T04:09:19;8.20;99.90
46508;DHT22;32223;53.654;10.014;2023-05-31T04:11:46;8.30;99.90
46508;DHT22;32223;53.654;10.014;2023-05-31T04:14:12;8.20;99.90
46508;DHT22;32223;53.654;10.014;2023-05-31T04:16:37;8.40;99.90
46508;DHT22;32223;53.654;10.014;2023-05-31T04:19:03;8.40;99.90
46508;DHT22;32223;53.654;10.014;2023-05-31T04:21:29;8.40;99.90
46508;DHT22;32223;53.654;10.014;2023-05-31T04:23:55;8.40;99.90
46508;DHT22;32223;53.654;10.014;2023-05-31T04:26:20;8.40;99.90
46508;DHT22;32223;53.654;10.014;2023-05-31T04:28:46;8.50;99.90
46508;DHT22;32223;53.654;10.014;2023-05-31T04:31:17;8.80;99.90
46508;DHT22;32223;53.654;10.014;2023-05-31T04:33:43;9.10;99.90
46508;DHT22;32223;53.654;10.014;2023-05-31T04:36:09;9.30;99.90
46508;DHT22;32223;53.654;10.014;2023-05-31T04:38:35;9.40;99.90
46508;DHT22;32223;53.654;10.014;2023-05-31T04:41:01;9.60;99.90
46508;DHT22;32223;53.654;10.014;2023-05-31T04:43:28;9.90;99.90
46508;DHT22;32223;53.654;10.014;2023-05-31T04:45:54;9.90;99.90
46508;DHT22;32223;53.654;10.014;2023-05-31T04:48:21;10.10;99.90
46508;DHT22;32223;53.654;10.014;2023-05-31T04:50:47;10.20;99.90
46508;DHT22;32223;53.654;10.014;2023-05-31T04:53:14;10.30;99.90
46508;DHT22;32223;53.654;10.014;2023-05-31T04:55:40;10.40;99.90
46508;DHT22;32223;53.654;10.014;2023-05-31T04:58:05;10.50;99.90
46508;DHT22;32223;53.654;10.014;2023-05-31T05:00:33;10.50;99.90
46508;DHT22;32223;53.654;10.014;2023-05-31T05:02:59;10.60;99.90
46508;DHT22;32223;53.654;10.014;2023-05-31T05:05:26;10.70;99.90
46508;DHT22;32223;53.654;10.014;2023-05-31T05:07:52;10.70;99.90
46508;DHT22;32223;53.654;10.014;2023-05-31T05:10:17;10.80;99.90
46508;DHT22;32223;53.654;10.014;2023-05-31T05:12:43;10.90;99.90
46508;DHT22;32223;53.654;10.014;2023-05-31T05:15:09;11.00;99.90
46508;DHT22;32223;53.654;10.014;2023-05-31T05:17:35;11.10;99.90
46508;DHT22;32223;53.654;10.014;2023-05-31T05:20:02;11.20;99.90
46508;DHT22;32223;53.654;10.014;2023-05-31T05:22:30;11.30;99.90
46508;DHT22;32223;53.654;10.014;2023-05-31T05:24:55;11.60;99.90
46508;DHT22;32223;53.654;10.014;2023-05-31T05:27:21;11.90;99.90
46508;DHT22;32223;53.654;10.014;2023-05-31T05:29:47;12.20;99.90
46508;DHT22;32223;53.654;10.014;2023-05-31T05:32:13;12.40;99.90
46508;DHT22;32223;53.654;10.014;2023-05-31T05:34:38;12.40;99.90
46508;DHT22;32223;53.654;10.014;2023-05-31T05:37:04;12.60;99.90
46508;DHT22;32223;53.654;10.014;2023-05-31T05:39:31;12.70;99.90
46508;DHT22;32223;53.654;10.014;2023-05-31T05:41:56;12.80;99.90
46508;DHT22;32223;53.654;10.014;2023-05-31T05:44:22;12.90;99.90
46508;DHT22;32223;53.654;10.014;2023-05-31T05:46:47;13.00;99.90
46508;DHT22;32223;53.654;10.014;2023-05-31T05:49:13;13.10;99.90
46508;DHT22;32223;53.654;10.014;2023-05-31T05:51:39;13.30;99.90
46508;DHT22;32223;53.654;10.014;2023-05-31T05:54:04;13.40;99.90
46508;DHT22;32223;53.654;10.014;2023-05-31T05:56:31;13.50;99.90
46508;DHT22;32223;53.654;10.014;2023-05-31T05:58:56;13.70;99.90
46508;DHT22;32223;53.654;10.014;2023-05-31T06:01:22;13.80;99.90
46508;DHT22;32223;53.654;10.014;2023-05-31T06:03:52;13.90;99.90
46508;DHT22;32223;53.654;10.014;2023-05-31T06:06:18;14.10;99.90
46508;DHT22;32223;53.654;10.014;2023-05-31T06:08:46;14.20;99.90
46508;DHT22;32223;53.654;10.014;2023-05-31T06:11:13;14.30;99.90
46508;DHT22;32223;53.654;10.014;2023-05-31T06:13:42;14.40;99.90
46508;DHT22;32223;53.654;10.014;2023-05-31T06:16:08;14.50;99.90
46508;DHT22;32223;53.654;10.014;2023-05-31T06:18:33;14.60;99.90
46508;DHT22;32223;53.654;10.014;2023-05-31T06:21:00;14.70;99.90
46508;DHT22;32223;53.654;10.014;2023-05-31T06:23:26;14.80;99.90
46508;DHT22;32223;53.654;10.014;2023-05-31T06:25:51;15.00;99.90
46508;DHT22;32223;53.654;10.014;2023-05-31T06:28:17;15.10;99.90
46508;DHT22;32223;53.654;10.014;2023-05-31T06:30:43;15.30;99.90
46508;DHT22;32223;53.654;10.014;2023-05-31T06:33:08;15.50;99.90
46508;DHT22;32223;53.654;10.014;2023-05-31T06:35:34;15.70;99.90
46508;DHT22;32223;53.654;10.014;2023-05-31T06:38:00;15.90;99.90
46508;DHT22;32223;53.654;10.014;2023-05-31T06:40:28;16.10;99.90
46508;DHT22;32223;53.654;10.014;2023-05-31T06:42:53;16.20;99.90
46508;DHT22;32223;53.654;10.014;2023-05-31T06:45:19;16.40;99.90
46508;DHT22;32223;53.654;10.014;2023-05-31T06:47:44;16.50;99.90
46508;DHT22;32223;53.654;10.014;2023-05-31T06:50:11;16.70;99.90
46508;DHT22;32223;53.654;10.014;2023-05-31T06:52:39;16.80;99.90
46508;DHT22;32223;53.654;10.014;2023-05-31T06:55:05;16.90;99.90
46508;DHT22;32223;53.654;10.014;2023-05-31T06:57:31;17.00;99.90
46508;DHT22;32223;53.654;10.014;2023-05-31T06:59:57;17.20;99.90
46508;DHT22;32223;53.654;10.014;2023-05-31T07:02:22;17.20;99.90
46508;DHT22;32223;53.654;10.014;2023-05-31T07:04:48;17.30;99.90
46508;DHT22;32223;53.654;10.014;2023-05-31T07:07:13;17.30;99.90
46508;DHT22;32223;53.654;10.014;2023-05-31T07:09:39;17.40;99.90
46508;DHT22;32223;53.654;10.014;2023-05-31T07:12:05;17.40;99.90
46508;DHT22;32223;53.654;10.014;2023-05-31T07:14:31;17.50;99.90
46508;DHT22;32223;53.654;10.014;2023-05-31T07:16:57;17.70;99.90
46508;DHT22;32223;53.654;10.014;2023-05-31T07:19:22;17.80;99.90
46508;DHT22;32223;53.654;10.014;2023-05-31T07:21:48;17.90;99.90
46508;DHT22;32223;53.654;10.014;2023-05-31T07:24:13;18.00;99.90
46508;DHT22;32223;53.654;10.014;2023-05-31T07:26:39;18.10;99.90
46508;DHT22;32223;53.654;10.014;2023-05-31T07:29:05;18.20;99.90
46508;DHT22;32223;53.654;10.014;2023-05-31T07:31:31;18.30;99.90
46508;DHT22;32223;53.654;10.014;2023-05-31T07:33:57;18.30;99.90
46508;DHT22;32223;53.654;10.014;2023-05-31T07:36:22;18.40;99.90
46508;DHT22;32223;53.654;10.014;2023-05-31T07:38:51;18.50;99.90
46508;DHT22;32223;53.654;10.014;2023-05-31T07:41:20;18.60;99.90
46508;DHT22;32223;53.654;10.014;2023-05-31T07:43:46;18.60;99.90
46508;DHT22;32223;53.654;10.014;2023-05-31T07:46:12;18.70;99.90
46508;DHT22;32223;53.654;10.014;2023-05-31T07:48:37;18.90;99.90
46508;DHT22;32223;53.654;10.014;2023-05-31T07:51:03;19.00;99.90
46508;DHT22;32223;53.654;10.014;2023-05-31T07:53:29;18.90;99.90
46508;DHT22;32223;53.654;10.014;2023-05-31T07:55:55;19.00;99.90
46508;DHT22;32223;53.654;10.014;2023-05-31T07:58:21;19.00;99.90
46508;DHT22;32223;53.654;10.014;2023-05-31T08:00:46;19.10;99.90
46508;DHT22;32223;53.654;10.014;2023-05-31T08:03:12;19.10;99.90
46508;DHT22;32223;53.654;10.014;2023-05-31T08:05:38;19.20;99.90
46508;DHT22;32223;53.654;10.014;2023-05-31T08:08:03;19.30;99.90
46508;DHT22;32223;53.654;10.014;2023-05-31T08:10:31;19.30;99.90
46508;DHT22;32223;53.654;10.014;2023-05-31T08:12:57;19.30;99.90
46508;DHT22;32223;53.654;10.014;2023-05-31T08:15:22;19.50;99.90
46508;DHT22;32223;53.654;10.014;2023-05-31T08:17:48;19.60;99.90
46508;DHT22;32223;53.654;10.014;2023-05-31T08:20:13;19.70;99.90
46508;DHT22;32223;53.654;10.014;2023-05-31T08:22:45;19.90;99.90
46508;DHT22;32223;53.654;10.014;2023-05-31T08:25:13;19.90;99.90
46508;DHT22;32223;53.654;10.014;2023-05-31T08:27:39;19.80;99.90
46508;DHT22;32223;53.654;10.014;2023-05-31T08:30:08;19.80;99.90
46508;DHT22;32223;53.654;10.014;2023-05-31T08:32:35;19.90;99.90
46508;DHT22;32223;53.654;10.014;2023-05-31T08:35:00;19.90;99.90
46508;DHT22;32223;53.654;10.014;2023-05-31T08:37:26;19.90;99.90
46508;DHT22;32223;53.654;10.014;2023-05-31T08:39:51;19.90;99.90
46508;DHT22;32223;53.654;10.014;2023-05-31T08:42:43;19.90;99.90
46508;DHT22;32223;53.654;10.014;2023-05-31T08:45:11;20.00;99.90
46508;DHT22;32223;53.654;10.014;2023-05-31T08:47:42;19.80;99.90
46508;DHT22;32223;53.654;10.014;2023-05-31T08:50:10;19.80;99.90
46508;DHT22;32223;53.654;10.014;2023-05-31T08:52:36;19.80;99.90
46508;DHT22;32223;53.654;10.014;2023-05-31T08:55:02;19.90;99.90
46508;DHT22;32223;53.654;10.014;2023-05-31T08:57:30;20.00;99.90
46508;DHT22;32223;53.654;10.014;2023-05-31T08:59:57;20.00;99.90
46508;DHT22;32223;53.654;10.014;2023-05-31T09:02:24;20.00;99.90
46508;DHT22;32223;53.654;10.014;2023-05-31T09:04:50;20.10;99.90
46508;DHT22;32223;53.654;10.014;2023-05-31T09:07:17;20.30;99.90
46508;DHT22;32223;53.654;10.014;2023-05-31T09:09:43;20.30;99.90
46508;DHT22;32223;53.654;10.014;2023-05-31T09:12:08;20.40;99.90
46508;DHT22;32223;53.654;10.014;2023-05-31T09:14:34;20.50;99.90
46508;DHT22;32223;53.654;10.014;2023-05-31T09:17:00;20.50;99.90
46508;DHT22;32223;53.654;10.014;2023-05-31T09:19:26;20.50;99.90
46508;DHT22;32223;53.654;10.014;2023-05-31T09:21:52;20.40;99.90
46508;DHT22;32223;53.654;10.014;2023-05-31T09:24:18;20.50;99.90
46508;DHT22;32223;53.654;10.014;2023-05-31T09:26:52;20.60;99.90
46508;DHT22;32223;53.654;10.014;2023-05-31T09:29:18;20.90;99.90
46508;DHT22;32223;53.654;10.014;2023-05-31T09:31:45;21.00;99.90
46508;DHT22;32223;53.654;10.014;2023-05-31T09:34:28;21.10;99.90
46508;DHT22;32223;53.654;10.014;2023-05-31T09:37:01;21.10;99.90
46508;DHT22;32223;53.654;10.014;2023-05-31T09:39:27;21.10;99.90
46508;DHT22;32223;53.654;10.014;2023-05-31T09:41:53;21.30;99.90
46508;DHT22;32223;53.654;10.014;2023-05-31T09:44:25;21.40;99.90
46508;DHT22;32223;53.654;10.014;2023-05-31T09:46:52;21.40;99.90
46508;DHT22;32223;53.654;10.014;2023-05-31T09:49:19;21.40;99.90
46508;DHT22;32223;53.654;10.014;2023-05-31T09:51:52;21.40;99.80
46508;DHT22;32223;53.654;10.014;2023-05-31T09:54:18;21.40;99.70
46508;DHT22;32223;53.654;10.014;2023-05-31T09:56:48;21.30;99.30
46508;DHT22;32223;53.654;10.014;2023-05-31T09:59:15;21.40;99.20
46508;DHT22;32223;53.654;10.014;2023-05-31T10:01:41;21.40;98.00
46508;DHT22;32223;53.654;10.014;2023-05-31T10:04:07;21.50;97.90
46508;DHT22;32223;53.654;10.014;2023-05-31T10:06:33;21.50;97.40
46508;DHT22;32223;53.654;10.014;2023-05-31T10:09:02;21.50;97.60
46508;DHT22;32223;53.654;10.014;2023-05-31T10:11:32;21.50;96.50
46508;DHT22;32223;53.654;10.014;2023-05-31T10:14:02;21.50;96.90
46508;DHT22;32223;53.654;10.014;2023-05-31T10:16:34;21.70;96.70
46508;DHT22;32223;53.654;10.014;2023-05-31T10:19:03;21.90;96.30
46508;DHT22;32223;53.654;10.014;2023-05-31T10:21:30;22.20;96.40
46508;DHT22;32223;53.654;10.014;2023-05-31T10:24:06;22.40;96.40
46508;DHT22;32223;53.654;10.014;2023-05-31T10:29:40;22.60;95.30
46508;DHT22;32223;53.654;10.014;2023-05-31T10:32:26;22.80;94.60
46508;DHT22;32223;53.654;10.014;2023-05-31T10:34:52;22.80;93.90
46508;DHT22;32223;53.654;10.014;2023-05-31T10:37:18;22.80;94.50
46508;DHT22;32223;53.654;10.014;2023-05-31T10:45:29;23.00;93.60
46508;DHT22;32223;53.654;10.014;2023-05-31T10:50:52;23.00;92.00
46508;DHT22;32223;53.654;10.014;2023-05-31T10:53:18;23.10;91.90
46508;DHT22;32223;53.654;10.014;2023-05-31T10:55:46;23.10;91.60
46508;DHT22;32223;53.654;10.014;2023-05-31T10:58:36;23.00;90.70
46508;DHT22;32223;53.654;10.014;2023-05-31T11:01:06;23.00;90.50
46508;DHT22;32223;53.654;10.014;2023-05-31T11:03:37;23.00;91.20
46508;DHT22;32223;53.654;10.014;2023-05-31T11:06:08;23.00;91.80
46508;DHT22;32223;53.654;10.014;2023-05-31T11:08:34;23.00;92.10
46508;DHT22;32223;53.654;10.014;2023-05-31T11:14:01;23.10;92.40
46508;DHT22;32223;53.654;10.014;2023-05-31T11:16:28;23.10;93.20
46508;DHT22;32223;53.654;10.014;2023-05-31T11:19:06;23.20;91.80
46508;DHT22;32223;53.654;10.014;2023-05-31T11:21:55;23.30;93.10
46508;DHT22;32223;53.654;10.014;2023-05-31T11:24:33;23.40;92.90
46508;DHT22;32223;53.654;10.014;2023-05-31T11:27:00;23.50;93.40
46508;DHT22;32223;53.654;10.014;2023-05-31T11:35:06;23.50;94.20
46508;DHT22;32223;53.654;10.014;2023-05-31T11:37:35;23.40;94.40
46508;DHT22;32223;53.654;10.014;2023-05-31T11:40:12;23.50;94.80
46508;DHT22;32223;53.654;10.014;2023-05-31T11:42:39;23.50;95.40
46508;DHT22;32223;53.654;10.014;2023-05-31T11:45:25;23.70;95.80
46508;DHT22;32223;53.654;10.014;2023-05-31T11:48:24;23.90;97.30
46508;DHT22;32223;53.654;10.014;2023-05-31T11:50:54;23.90;96.80
46508;DHT22;32223;53.654;10.014;2023-05-31T11:53:20;23.90;97.50
46508;DHT22;32223;53.654;10.014;2023-05-31T11:55:46;24.20;97.60
46508;DHT22;32223;53.654;10.014;2023-05-31T11:58:15;24.30;97.10
46508;DHT22;32223;53.654;10.014;2023-05-31T12:00:47;24.30;97.20
46508;DHT22;32223;53.654;10.014;2023-05-31T12:03:16;24.50;97.00
46508;DHT22;32223;53.654;10.014;2023-05-31T12:05:45;24.60;96.80
46508;DHT22;32223;53.654;10.014;2023-05-31T12:08:14;24.60;96.30
46508;DHT22;32223;53.654;10.014;2023-05-31T12:10:40;24.80;95.70
46508;DHT22;32223;53.654;10.014;2023-05-31T12:13:06;24.80;96.20
46508;DHT22;32223;53.654;10.014;2023-05-31T12:15:32;25.00;96.30
46508;DHT22;32223;53.654;10.014;2023-05-31T12:18:01;25.00;96.30
46508;DHT22;32223;53.654;10.014;2023-05-31T12:20:30;25.00;96.50
46508;DHT22;32223;53.654;10.014;2023-05-31T12:23:10;25.20;95.40
46508;DHT22;32223;53.654;10.014;2023-05-31T12:25:35;25.40;96.10
46508;DHT22;32223;53.654;10.014;2023-05-31T12:28:02;25.40;96.60
46508;DHT22;32223;53.654;10.014;2023-05-31T12:30:28;25.60;96.20
46508;DHT22;32223;53.654;10.014;2023-05-31T12:32:53;25.60;95.40
46508;DHT22;32223;53.654;10.014;2023-05-31T12:35:22;25.70;95.30
46508;DHT22;32223;53.654;10.014;2023-05-31T12:37:50;25.70;95.00
46508;DHT22;32223;53.654;10.014;2023-05-31T12:40:17;25.80;95.40
46508;DHT22;32223;53.654;10.014;2023-05-31T12:42:48;26.00;95.90
46508;DHT22;32223;53.654;10.014;2023-05-31T12:45:17;26.10;94.80
46508;DHT22;32223;53.654;10.014;2023-05-31T12:47:43;26.10;93.00
46508;DHT22;32223;53.654;10.014;2023-05-31T12:50:09;26.20;92.60
46508;DHT22;32223;53.654;10.014;2023-05-31T12:52:37;26.60;92.30
46508;DHT22;32223;53.654;10.014;2023-05-31T12:55:07;27.00;92.50
46508;DHT22;32223;53.654;10.014;2023-05-31T12:57:33;27.10;91.50
46508;DHT22;32223;53.654;10.014;2023-05-31T13:00:05;27.00;90.50
46508;DHT22;32223;53.654;10.014;2023-05-31T13:02:35;27.00;90.30
46508;DHT22;32223;53.654;10.014;2023-05-31T13:05:01;27.00;88.70
46508;DHT22;32223;53.654;10.014;2023-05-31T13:07:27;27.20;88.40
46508;DHT22;32223;53.654;10.014;2023-05-31T13:09:53;27.30;86.00
46508;DHT22;32223;53.654;10.014;2023-05-31T13:12:19;27.50;84.10
46508;DHT22;32223;53.654;10.014;2023-05-31T13:14:46;27.80;82.70
46508;DHT22;32223;53.654;10.014;2023-05-31T13:17:12;28.10;82.00
46508;DHT22;32223;53.654;10.014;2023-05-31T13:19:37;28.40;79.80
46508;DHT22;32223;53.654;10.014;2023-05-31T13:22:03;28.90;78.90
46508;DHT22;32223;53.654;10.014;2023-05-31T13:24:29;29.50;78.90
46508;DHT22;32223;53.654;10.014;2023-05-31T13:26:54;29.70;79.00
46508;DHT22;32223;53.654;10.014;2023-05-31T13:29:20;30.00;77.40
46508;DHT22;32223;53.654;10.014;2023-05-31T13:31:49;30.20;75.40
46508;DHT22;32223;53.654;10.014;2023-05-31T13:34:17;30.10;75.70
46508;DHT22;32223;53.654;10.014;2023-05-31T13:36:43;30.30;74.60
46508;DHT22;32223;53.654;10.014;2023-05-31T13:39:09;30.00;73.40
46508;DHT22;32223;53.654;10.014;2023-05-31T13:41:43;29.70;74.00
46508;DHT22;32223;53.654;10.014;2023-05-31T13:44:09;29.40;73.20
46508;DHT22;32223;53.654;10.014;2023-05-31T13:46:35;29.50;72.80
46508;DHT22;32223;53.654;10.014;2023-05-31T13:49:01;29.60;72.30
46508;DHT22;32223;53.654;10.014;2023-05-31T13:51:26;29.60;72.40
46508;DHT22;32223;53.654;10.014;2023-05-31T13:53:52;30.00;70.70
46508;DHT22;32223;53.654;10.014;2023-05-31T13:56:18;30.50;70.60
46508;DHT22;32223;53.654;10.014;2023-05-31T13:58:43;30.70;70.30
46508;DHT22;32223;53.654;10.014;2023-05-31T14:01:10;30.60;68.90
46508;DHT22;32223;53.654;10.014;2023-05-31T14:03:39;30.50;68.30
46508;DHT22;32223;53.654;10.014;2023-05-31T14:06:06;30.40;68.30
46508;DHT22;32223;53.654;10.014;2023-05-31T14:08:32;30.40;68.30
46508;DHT22;32223;53.654;10.014;2023-05-31T14:10:57;30.80;67.70
46508;DHT22;32223;53.654;10.014;2023-05-31T14:13:23;31.20;66.10
46508;DHT22;32223;53.654;10.014;2023-05-31T14:15:51;31.60;65.60
46508;DHT22;32223;53.654;10.014;2023-05-31T14:18:16;31.00;65.10
46508;DHT22;32223;53.654;10.014;2023-05-31T14:20:44;31.00;65.40
46508;DHT22;32223;53.654;10.014;2023-05-31T14:23:10;31.00;65.90
46508;DHT22;32223;53.654;10.014;2023-05-31T14:25:35;30.80;65.60
46508;DHT22;32223;53.654;10.014;2023-05-31T14:28:01;30.20;66.40
46508;DHT22;32223;53.654;10.014;2023-05-31T14:30:27;29.90;66.80
46508;DHT22;32223;53.654;10.014;2023-05-31T14:32:52;29.50;67.40
46508;DHT22;32223;53.654;10.014;2023-05-31T14:35:19;29.50;67.20
46508;DHT22;32223;53.654;10.014;2023-05-31T14:37:46;29.50;68.00
46508;DHT22;32223;53.654;10.014;2023-05-31T14:40:11;29.70;67.70
46508;DHT22;32223;53.654;10.014;2023-05-31T14:42:37;29.80;68.20
46508;DHT22;32223;53.654;10.014;2023-05-31T14:45:03;29.70;67.50
46508;DHT22;32223;53.654;10.014;2023-05-31T14:47:30;29.70;67.10
46508;DHT22;32223;53.654;10.014;2023-05-31T14:49:57;29.50;66.90
46508;DHT22;32223;53.654;10.014;2023-05-31T14:52:22;29.70;67.70
46508;DHT22;32223;53.654;10.014;2023-05-31T14:54:48;29.70;66.30
46508;DHT22;32223;53.654;10.014;2023-05-31T14:57:14;29.30;67.10
46508;DHT22;32223;53.654;10.014;2023-05-31T14:59:39;29.40;67.70
46508;DHT22;32223;53.654;10.014;2023-05-31T15:02:05;29.40;67.10
46508;DHT22;32223;53.654;10.014;2023-05-31T15:04:32;29.80;66.80
46508;DHT22;32223;53.654;10.014;2023-05-31T15:06:58;30.10;66.10
46508;DHT22;32223;53.654;10.014;2023-05-31T15:09:24;30.10;66.60
46508;DHT22;32223;53.654;10.014;2023-05-31T15:11:49;30.50;65.30
46508;DHT22;32223;53.654;10.014;2023-05-31T15:14:15;30.30;66.20
46508;DHT22;32223;53.654;10.014;2023-05-31T15:16:41;30.10;66.30
46508;DHT22;32223;53.654;10.014;2023-05-31T15:19:07;30.10;66.80
46508;DHT22;32223;53.654;10.014;2023-05-31T15:21:32;30.00;67.30
46508;DHT22;32223;53.654;10.014;2023-05-31T15:23:58;29.90;67.50
46508;DHT22;32223;53.654;10.014;2023-05-31T15:26:24;29.60;67.40
46508;DHT22;32223;53.654;10.014;2023-05-31T15:28:49;29.60;68.30
46508;DHT22;32223;53.654;10.014;2023-05-31T15:31:15;29.50;68.50
46508;DHT22;32223;53.654;10.014;2023-05-31T15:33:41;29.40;68.40
46508;DHT22;32223;53.654;10.014;2023-05-31T15:36:07;29.40;68.20
46508;DHT22;32223;53.654;10.014;2023-05-31T15:38:34;29.30;68.30
46508;DHT22;32223;53.654;10.014;2023-05-31T15:40:59;29.30;69.00
46508;DHT22;32223;53.654;10.014;2023-05-31T15:43:26;28.90;69.20
46508;DHT22;32223;53.654;10.014;2023-05-31T15:45:53;28.90;68.90
46508;DHT22;32223;53.654;10.014;2023-05-31T15:48:19;28.60;68.80